Time;durP1;ratioP1;P1;durP2;ratioP2;P2;SDS_P1;SDS_P2;PMS_P1;PMS_P2;Temp;Humidity;BMP_temperature;BMP_pressure;BME280_temperature;BME280_humidity;BME280_pressure;Samples;Min_cycle;Max_cycle;Signal;HPM_P1;HPM_P2
2021/08/28 00:02:12;;;;;;;12.03;4.77;;;;;;;14.31;88.03;101998.09;5075189;28;20334;-36
2021/08/28 00:04:38;;;;;;;12.60;5.33;;;;;;;14.32;87.69;102000.56;5075024;28;20143;-36
2021/08/28 00:07:03;;;;;;;12.77;5.53;;;;;;;14.27;87.90;101999.59;5075298;28;20457;-36
2021/08/28 00:09:29;;;;;;;11.65;5.40;;;;;;;14.20;88.09;101991.53;5073139;28;20040;-36
2021/08/28 00:11:54;;;;;;;13.50;5.22;;;;;;;14.25;88.39;101990.81;5074604;28;20453;-36
2021/08/28 00:14:19;;;;;;;13.90;5.40;;;;;;;14.11;89.26;102001.88;5074725;28;20028;-36
2021/08/28 00:16:45;;;;;;;11.00;5.07;;;;;;;14.22;88.98;101989.38;5074953;28;20289;-35
2021/08/28 00:19:10;;;;;;;12.52;5.40;;;;;;;14.22;88.93;101988.56;5074716;28;20027;-36
2021/08/28 00:21:35;;;;;;;12.07;5.40;;;;;;;14.11;88.62;101987.44;5074542;28;20055;-36
2021/08/28 00:24:02;;;;;;;14.73;5.40;;;;;;;14.12;89.12;101987.19;5073096;28;20267;-36
2021/08/28 00:26:30;;;;;;;16.45;6.78;;;;;;;14.14;89.25;101982.34;5074350;28;20481;-36
2021/08/28 00:28:55;;;;;;;13.68;5.57;;;;;;;14.14;89.20;101970.66;5074095;28;20078;-36
2021/08/28 00:31:21;;;;;;;12.67;5.10;;;;;;;14.21;89.39;101985.00;5074513;28;20028;-36
2021/08/28 00:33:46;;;;;;;14.07;6.00;;;;;;;14.25;88.96;101986.22;5074286;28;20259;-36
2021/08/28 00:36:12;;;;;;;12.37;4.93;;;;;;;14.26;89.15;101990.59;5074523;28;20082;-35
2021/08/28 00:38:37;;;;;;;11.13;4.77;;;;;;;14.30;88.32;101985.50;5074006;28;20298;-36
2021/08/28 00:41:02;;;;;;;10.93;5.13;;;;;;;14.25;89.75;101988.94;5074044;28;20334;-36
2021/08/28 00:43:29;;;;;;;12.00;5.07;;;;;;;14.26;89.78;101973.44;5074011;28;20273;-36
2021/08/28 00:45:54;;;;;;;14.63;4.95;;;;;;;14.33;89.94;101982.34;5074393;28;20362;-36
2021/08/28 00:48:20;;;;;;;12.93;4.95;;;;;;;14.35;90.06;101985.69;5073831;28;20020;-36
2021/08/28 00:50:45;;;;;;;13.73;5.18;;;;;;;14.26;89.81;101968.84;5074109;28;20101;-36
2021/08/28 00:53:13;;;;;;;16.48;5.22;;;;;;;14.39;89.59;101984.97;5073499;28;20027;-36
2021/08/28 00:55:42;;;;;;;14.38;4.93;;;;;;;14.34;90.16;101981.28;5073714;28;20025;-35
2021/08/28 00:58:08;;;;;;;12.60;4.80;;;;;;;14.40;89.85;101974.94;5073427;28;20479;-35
2021/08/28 01:00:40;;;;;;;;;;;;;;;14.53;88.36;101979.41;5074098;28;20022;-36
2021/08/28 01:03:06;;;;;;;10.32;4.22;;;;;;;14.50;89.37;101982.59;5073318;28;19904;-36
2021/08/28 01:06:07;;;;;;;15.82;5.38;;;;;;;14.45;89.35;101977.81;5072653;28;20016;-36
2021/08/28 01:08:42;;;;;;;10.45;4.85;;;;;;;14.52;89.47;101983.19;5011470;28;20177;-36
2021/08/28 01:11:30;;;;;;;12.25;5.57;;;;;;;14.49;89.61;101989.91;5011637;28;20060;-36
2021/08/28 01:14:06;;;;;;;9.57;4.65;;;;;;;14.49;89.89;101984.47;5011816;28;20116;-36
2021/08/28 01:16:33;;;;;;;11.57;4.80;;;;;;;14.48;90.27;101971.94;5011523;28;20118;-36
2021/08/28 01:18:58;;;;;;;11.30;5.22;;;;;;;14.46;90.00;101965.88;5011232;28;20091;-36
2021/08/28 01:21:30;;;;;;;13.43;5.40;;;;;;;14.43;90.04;101969.03;5011982;28;20114;-36
2021/08/28 01:24:00;;;;;;;16.67;7.22;;;;;;;14.46;90.08;101967.75;5011335;28;20034;-35
2021/08/28 01:26:30;;;;;;;15.85;7.60;;;;;;;14.36;90.71;101965.56;5011819;28;20030;-36
2021/08/28 01:29:18;;;;;;;14.00;6.55;;;;;;;14.44;90.29;101973.41;5011388;28;20040;-36
2021/08/28 01:31:46;;;;;;;13.02;5.40;;;;;;;14.47;90.95;101969.41;5011804;28;20382;-36
2021/08/28 01:34:13;;;;;;;10.98;5.32;;;;;;;14.45;90.67;101966.94;5011185;28;20355;-35
2021/08/28 01:36:39;;;;;;;9.90;4.95;;;;;;;14.38;91.31;101971.59;5011772;28;20116;-36
2021/08/28 01:39:05;;;;;;;11.40;5.63;;;;;;;14.49;90.84;101975.47;5011888;28;20116;-35
2021/08/28 01:41:30;;;;;;;11.10;4.72;;;;;;;14.48;90.63;101962.94;5011371;28;20478;-36
2021/08/28 01:43:57;;;;;;;11.40;5.40;;;;;;;14.43;90.72;101960.88;5037253;28;20043;-35
2021/08/28 01:46:23;;;;;;;13.05;5.35;;;;;;;14.44;90.92;101965.25;5072995;28;20036;-36
2021/08/28 01:48:49;;;;;;;12.25;5.30;;;;;;;14.40;91.21;101950.47;5072945;28;20028;-36
2021/08/28 01:51:15;;;;;;;12.18;5.03;;;;;;;14.55;90.94;101977.31;5073157;28;20070;-36
2021/08/28 01:53:41;;;;;;;12.93;4.88;;;;;;;14.55;91.45;101972.69;5072726;28;20020;-35
2021/08/28 01:56:06;;;;;;;11.60;5.70;;;;;;;14.54;91.90;101986.50;5073595;28;20410;-36
2021/08/28 01:58:33;;;;;;;9.70;4.57;;;;;;;14.54;91.91;101981.06;5072654;28;20023;-35
2021/08/28 02:00:58;;;;;;;;;;;;;;;14.61;89.93;101979.94;5073629;28;20107;-36
2021/08/28 02:03:23;;;;;;;11.82;4.95;;;;;;;14.49;91.74;101961.88;5072832;28;20352;-36
2021/08/28 02:05:57;;;;;;;11.00;5.32;;;;;;;14.60;91.70;101981.00;5073168;28;20046;-36
2021/08/28 02:08:31;;;;;;;15.25;5.13;;;;;;;14.58;91.61;101979.53;5072965;28;20044;-36
2021/08/28 02:11:01;;;;;;;11.73;5.05;;;;;;;14.60;91.97;101977.44;5072656;28;20028;-35
2021/08/28 02:13:33;;;;;;;12.73;5.70;;;;;;;14.59;91.92;101971.16;5076408;28;20025;-36
2021/08/28 02:16:07;;;;;;;11.25;5.00;;;;;;;14.61;92.01;101973.66;5079486;28;20051;-36
2021/08/28 02:18:40;;;;;;;10.57;5.20;;;;;;;14.55;91.80;101950.09;5079457;28;20028;-35
2021/08/28 02:21:08;;;;;;;14.00;6.13;;;;;;;14.58;92.23;101966.75;5080093;28;20024;-36
2021/08/28 02:23:39;;;;;;;13.45;5.75;;;;;;;14.61;92.81;101965.47;5079301;28;20024;-36
2021/08/28 02:26:15;;;;;;;14.32;5.93;;;;;;;14.65;92.23;101963.97;5079636;28;20107;-36
2021/08/28 02:28:48;;;;;;;15.48;5.70;;;;;;;14.65;91.95;101962.06;5078995;28;20080;-36
2021/08/28 02:31:16;;;;;;;11.27;5.70;;;;;;;14.59;92.33;101957.56;5079657;28;20086;-36
2021/08/28 02:33:43;;;;;;;13.43;6.00;;;;;;;14.64;91.64;101971.31;5079194;28;20028;-36
2021/08/28 02:36:12;;;;;;;15.13;5.80;;;;;;;14.68;92.39;101971.66;5078971;28;20067;-35
2021/08/28 02:38:38;;;;;;;14.80;5.75;;;;;;;14.70;92.81;101963.28;5079381;28;20017;-36
2021/08/28 02:41:06;;;;;;;;;;;;;;;14.76;91.06;101965.91;5079618;28;20062;-36
2021/08/28 02:43:31;;;;;;;14.63;5.75;;;;;;;14.67;93.04;101964.56;5079071;28;19947;-36
2021/08/28 02:45:59;;;;;;;9.88;5.47;;;;;;;14.62;92.97;101950.81;5078928;28;20052;-36
2021/08/28 02:48:28;;;;;;;15.40;5.93;;;;;;;14.70;93.02;101964.09;5078771;28;20035;-35
2021/08/28 02:50:54;;;;;;;15.93;5.60;;;;;;;14.70;93.32;101963.28;5079130;28;20035;-36
2021/08/28 02:53:23;;;;;;;12.63;5.47;;;;;;;14.72;92.92;101961.13;5079775;28;20028;-36
2021/08/28 02:55:50;;;;;;;13.32;5.72;;;;;;;14.64;93.44;101949.53;5079511;28;20036;-35
2021/08/28 02:58:15;;;;;;;15.98;6.93;;;;;;;14.63;94.22;101957.91;5078992;28;20024;-36
2021/08/28 03:00:44;;;;;;;13.18;6.18;;;;;;;14.67;94.43;101959.94;5079439;28;20111;-35
2021/08/28 03:03:12;;;;;;;11.93;5.60;;;;;;;14.65;94.60;101955.81;5078880;28;20081;-36
2021/08/28 03:05:39;;;;;;;14.35;6.38;;;;;;;14.56;94.62;101944.41;5078051;28;20474;-36
2021/08/28 03:08:06;;;;;;;14.13;5.80;;;;;;;14.71;94.41;101960.31;5078997;28;20437;-36
2021/08/28 03:10:31;;;;;;;14.63;5.90;;;;;;;14.71;94.60;101956.75;5078953;28;20020;-35
2021/08/28 03:12:57;;;;;;;15.75;5.90;;;;;;;14.73;94.71;101955.44;5078885;28;20013;-36
2021/08/28 03:15:22;;;;;;;14.43;6.28;;;;;;;14.61;95.15;101938.25;5078835;28;20036;-36
2021/08/28 03:17:48;;;;;;;13.20;6.22;;;;;;;14.70;94.77;101952.38;5078981;28;20120;-35
2021/08/28 03:20:15;;;;;;;13.57;6.10;;;;;;;14.71;94.85;101954.03;5078901;28;20038;-36
2021/08/28 03:22:43;;;;;;;11.55;5.90;;;;;;;14.72;95.07;101942.91;5079116;28;20368;-36
2021/08/28 03:25:09;;;;;;;13.10;6.45;;;;;;;14.63;94.49;101930.69;5076648;28;20029;-36
2021/08/28 03:27:36;;;;;;;16.35;6.45;;;;;;;14.74;94.63;101945.38;5076183;28;20434;-36
2021/08/28 03:30:07;;;;;;;12.85;6.38;;;;;;;14.74;94.76;101950.84;5075518;28;20031;-35
2021/08/28 03:32:34;;;;;;;14.30;6.35;;;;;;;14.68;95.40;101949.88;5075209;28;20426;-36
2021/08/28 03:35:00;;;;;;;14.85;6.18;;;;;;;14.69;95.26;101954.28;5075407;28;20020;-35
2021/08/28 03:37:26;;;;;;;16.77;6.20;;;;;;;14.72;95.42;101947.53;5075438;28;20039;-36
2021/08/28 03:39:51;;;;;;;11.93;5.93;;;;;;;14.72;95.33;101945.63;5075380;28;20029;-36
2021/08/28 03:42:17;;;;;;;15.82;5.93;;;;;;;14.69;95.79;101948.84;5075989;28;20102;-36
2021/08/28 03:44:42;;;;;;;11.10;5.40;;;;;;;14.72;95.85;101953.81;5075649;28;20052;-36
2021/08/28 03:47:08;;;;;;;16.27;6.15;;;;;;;14.72;95.65;101951.06;5075604;28;20046;-36
2021/08/28 03:49:33;;;;;;;13.25;5.82;;;;;;;14.73;96.18;101962.78;5075220;28;20024;-35
2021/08/28 03:51:59;;;;;;;19.25;6.63;;;;;;;14.75;96.48;101958.78;5075324;28;20094;-36
2021/08/28 03:54:24;;;;;;;13.27;6.20;;;;;;;14.78;96.45;101952.03;5074887;28;20056;-35
2021/08/28 03:56:49;;;;;;;14.93;6.28;;;;;;;14.76;96.30;101956.91;5074219;28;20097;-36
2021/08/28 03:59:15;;;;;;;18.30;6.10;;;;;;;14.78;96.61;101961.03;5075074;28;20468;-36
2021/08/28 04:01:40;;;;;;;12.82;5.20;;;;;;;14.81;96.38;101959.75;5075269;28;20431;-36
2021/08/28 04:04:06;;;;;;;17.02;6.63;;;;;;;14.80;96.68;101958.94;5075519;28;20111;-36
2021/08/28 04:06:31;;;;;;;12.57;5.23;;;;;;;14.72;96.44;101937.47;5075394;28;20030;-36
2021/08/28 04:08:56;;;;;;;13.70;5.57;;;;;;;14.79;96.58;101948.28;5074930;28;20078;-36
2021/08/28 04:11:22;;;;;;;12.18;5.10;;;;;;;14.79;96.81;101948.28;5075544;28;20395;-36
2021/08/28 04:13:47;;;;;;;17.73;5.50;;;;;;;14.83;96.80;101958.44;5075303;28;20122;-35
2021/08/28 04:16:12;;;;;;;9.77;5.35;;;;;;;14.81;96.86;101954.31;5075435;28;20013;-36
2021/08/28 04:18:38;;;;;;;14.33;5.43;;;;;;;14.83;96.83;101958.44;5074778;28;20155;-35
2021/08/28 04:21:03;;;;;;;14.02;5.40;;;;;;;14.65;97.06;101923.13;5075154;28;20077;-35
2021/08/28 04:23:28;;;;;;;12.93;5.40;;;;;;;14.81;96.63;101960.59;5075369;28;20025;-36
2021/08/28 04:25:53;;;;;;;15.50;5.27;;;;;;;14.72;97.15;101944.81;5075036;28;20300;-36
2021/08/28 04:28:19;;;;;;;13.43;5.77;;;;;;;14.81;97.03;101952.41;5074473;28;20024;-36
2021/08/28 04:30:44;;;;;;;10.48;5.30;;;;;;;14.82;97.12;101948.63;5074669;28;20467;-36
2021/08/28 04:33:11;;;;;;;13.93;5.47;;;;;;;14.83;97.52;101954.88;5074529;28;20017;-36
2021/08/28 04:35:37;;;;;;;10.00;5.10;;;;;;;14.83;97.56;101952.16;5073738;28;20020;-36
2021/08/28 04:38:02;;;;;;;14.40;5.40;;;;;;;14.85;97.35;101955.50;5073499;28;20070;-36
2021/08/28 04:40:28;;;;;;;10.63;4.97;;;;;;;14.85;97.53;101947.34;5074698;28;20032;-36
2021/08/28 04:42:53;;;;;;;15.15;5.85;;;;;;;14.87;97.98;101948.75;5073925;28;20511;-36
2021/08/28 04:45:19;;;;;;;12.07;5.33;;;;;;;14.83;97.74;101946.72;5074413;28;20095;-36
2021/08/28 04:47:44;;;;;;;10.73;4.88;;;;;;;14.88;97.51;101955.88;5074346;28;20247;-35
2021/08/28 04:50:10;;;;;;;12.50;5.90;;;;;;;14.73;98.07;101930.13;5074310;28;20024;-36
2021/08/28 04:52:36;;;;;;;13.75;5.15;;;;;;;14.89;97.48;101940.38;5074651;28;20024;-36
2021/08/28 04:55:01;;;;;;;17.70;5.40;;;;;;;14.91;97.84;101943.69;5073962;28;20032;-36
2021/08/28 04:57:26;;;;;;;22.08;5.20;;;;;;;14.90;97.80;101947.47;5073907;28;20108;-36
2021/08/28 04:59:52;;;;;;;12.83;5.37;;;;;;;14.94;97.64;101945.94;5073830;28;20028;-36
2021/08/28 05:02:17;;;;;;;15.10;5.60;;;;;;;14.93;97.97;101944.25;5074339;28;20262;-36
2021/08/28 05:04:42;;;;;;;7.97;4.60;;;;;;;14.85;97.59;101931.00;5073778;28;20020;-36
2021/08/28 05:07:07;;;;;;;13.53;4.73;;;;;;;14.88;97.63;101927.78;5072636;28;20066;-36
2021/08/28 05:09:33;;;;;;;14.23;5.00;;;;;;;14.99;97.24;101951.53;5074609;28;20291;-36
2021/08/28 05:11:58;;;;;;;11.87;5.40;;;;;;;14.85;97.87;101931.00;5074057;28;20035;-36
2021/08/28 05:14:24;;;;;;;14.32;5.00;;;;;;;15.02;97.20;101951.03;5073983;28;20316;-35
2021/08/28 05:16:49;;;;;;;11.88;5.00;;;;;;;15.02;97.29;101956.47;5072929;28;20050;-36
2021/08/28 05:19:14;;;;;;;12.30;4.80;;;;;;;15.03;97.24;101957.31;5073976;28;20052;-36
2021/08/28 05:21:40;;;;;;;17.17;5.27;;;;;;;15.04;97.24;101959.00;5073974;28;20312;-36
2021/08/28 05:24:05;;;;;;;10.98;4.93;;;;;;;15.05;97.38;101961.47;5073337;28;20047;-36
2021/08/28 05:26:31;;;;;;;10.82;4.25;;;;;;;15.04;97.90;101962.53;5073429;28;20084;-36
2021/08/28 05:28:56;;;;;;;16.75;5.30;;;;;;;14.97;98.09;101953.63;5073455;28;20032;-36
2021/08/28 05:31:21;;;;;;;10.03;4.03;;;;;;;15.06;97.59;101962.31;5073539;28;20025;-36
2021/08/28 05:33:47;;;;;;;16.70;4.63;;;;;;;15.10;97.47;101977.13;5073346;28;20269;-36
2021/08/28 05:36:12;;;;;;;9.30;4.53;;;;;;;15.11;98.16;101976.88;5073488;28;20024;-36
2021/08/28 05:38:37;;;;;;;10.17;4.43;;;;;;;15.07;97.57;101964.78;5073544;28;20627;-36
2021/08/28 05:41:03;;;;;;;15.00;5.38;;;;;;;15.17;97.49;101980.56;5074078;28;20032;-36
2021/08/28 05:43:28;;;;;;;14.77;4.95;;;;;;;15.18;97.45;101976.78;5073449;28;20103;-35
2021/08/28 05:45:55;;;;;;;13.03;4.83;;;;;;;15.23;96.62;101981.53;5073240;28;20032;-36
2021/08/28 05:48:22;;;;;;;10.15;5.22;;;;;;;15.25;96.56;101971.22;5072986;28;20028;-36
2021/08/28 05:50:47;;;;;;;6.05;3.60;;;;;;;15.31;96.61;101982.00;5074107;28;20025;-36
2021/08/28 05:53:12;;;;;;;12.13;4.47;;;;;;;15.27;96.24;101982.72;5073357;28;20043;-36
2021/08/28 05:55:38;;;;;;;;;;;;;;;15.35;95.43;101982.38;5073694;28;20025;-36
2021/08/28 05:58:03;;;;;;;10.93;3.87;;;;;;;15.30;95.91;101982.25;5073516;28;20052;-36
2021/08/28 06:00:28;;;;;;;9.27;4.33;;;;;;;15.23;95.48;101979.66;5073670;28;20281;-36
2021/08/28 06:02:54;;;;;;;9.93;4.77;;;;;;;15.20;95.43;101985.56;5071817;28;20274;-36
2021/08/28 06:05:19;;;;;;;;;;;;;;;15.27;94.83;101985.44;5072518;28;20033;-36
2021/08/28 06:07:44;;;;;;;9.77;3.60;;;;;;;15.20;94.93;101975.47;5073537;28;19904;-40
2021/08/28 06:10:10;;;;;;;12.15;4.10;;;;;;;15.24;95.27;101992.19;5072887;28;20383;-36
2021/08/28 06:12:36;;;;;;;9.50;4.10;;;;;;;15.22;95.04;101982.59;5072788;28;20020;-40
2021/08/28 06:15:02;;;;;;;9.23;4.40;;;;;;;15.10;95.09;101967.06;5073039;28;20071;-36
2021/08/28 06:17:27;;;;;;;;;;;;;;;15.23;94.57;101981.53;5073778;28;20028;-36
2021/08/28 06:19:53;;;;;;;9.93;3.77;;;;;;;15.15;94.38;101980.81;5073301;28;19911;-36
2021/08/28 06:22:18;;;;;;;6.17;3.50;;;;;;;15.10;94.52;101986.13;5073060;28;20279;-36
2021/08/28 06:24:44;;;;;;;7.65;4.00;;;;;;;14.92;94.38;101951.59;5072918;28;20024;-36
2021/08/28 06:27:09;;;;;;;7.13;4.10;;;;;;;15.03;94.90;101974.50;5072824;28;20203;-35
2021/08/28 06:29:36;;;;;;;10.68;3.80;;;;;;;15.09;94.53;101978.19;5073065;28;20361;-36
2021/08/28 06:32:02;;;;;;;7.65;4.50;;;;;;;15.22;94.61;101986.13;5072482;28;20457;-35
2021/08/28 06:34:27;;;;;;;8.63;4.03;;;;;;;15.12;94.16;101962.19;5072626;28;20032;-36
2021/08/28 06:36:53;;;;;;;7.77;4.50;;;;;;;15.42;94.83;101989.38;5073190;28;20020;-35
2021/08/28 06:39:19;;;;;;;7.55;4.55;;;;;;;15.48;93.71;101973.97;5072330;28;20271;-36
2021/08/28 06:41:44;;;;;;;;;;;;;;;15.74;93.79;101991.78;5073342;28;20079;-36
2021/08/28 06:44:09;;;;;;;7.60;4.23;;;;;;;15.67;92.67;101961.91;5072349;28;19904;-36
2021/08/28 06:46:34;;;;;;;;;;;;;;;15.85;93.14;101984.66;5073287;28;20020;-36
2021/08/28 06:49:00;;;;;;;9.07;4.93;;;;;;;15.76;92.82;101972.44;5072179;28;19999;-35
2021/08/28 06:51:25;;;;;;;7.88;4.80;;;;;;;15.85;92.36;101982.75;5073104;28;20021;-36
2021/08/28 06:53:51;;;;;;;10.63;4.60;;;;;;;15.89;92.51;101977.66;5073059;28;20042;-36
2021/08/28 06:56:17;;;;;;;7.60;5.00;;;;;;;15.94;92.40;101988.69;5072842;28;20123;-35
2021/08/28 06:58:42;;;;;;;12.18;4.88;;;;;;;15.95;92.11;101977.53;5072493;28;20024;-35
2021/08/28 07:01:08;;;;;;;8.00;4.75;;;;;;;15.97;92.14;101990.94;5075430;28;20070;-36
2021/08/28 07:03:33;;;;;;;8.47;4.40;;;;;;;15.98;92.55;101987.16;5076192;28;20024;-36
2021/08/28 07:05:59;;;;;;;12.70;4.80;;;;;;;15.90;92.04;101979.31;5076632;28;20254;-36
2021/08/28 07:08:24;;;;;;;13.07;5.10;;;;;;;16.03;92.33;101984.53;5075835;28;20087;-36
2021/08/28 07:10:49;;;;;;;9.18;4.75;;;;;;;16.03;92.30;101990.00;5075853;28;20071;-36
2021/08/28 07:13:15;;;;;;;8.95;5.13;;;;;;;16.04;91.82;101991.63;5075986;28;20029;-36
2021/08/28 07:15:40;;;;;;;10.23;5.20;;;;;;;16.04;92.28;101994.38;5076749;28;20020;-36
2021/08/28 07:18:08;;;;;;;8.63;4.45;;;;;;;15.98;92.38;101986.31;5075621;28;20051;-36
2021/08/28 07:20:34;;;;;;;9.07;4.72;;;;;;;16.01;92.44;101994.88;5075940;28;20107;-36
2021/08/28 07:22:59;;;;;;;11.35;4.63;;;;;;;16.03;92.73;101997.34;5075904;28;20126;-36
2021/08/28 07:25:24;;;;;;;;;;;;;;;16.10;91.51;101995.31;5076751;28;20020;-36
2021/08/28 07:27:50;;;;;;;11.97;4.67;;;;;;;15.95;91.79;101990.34;5076201;28;20320;-36
2021/08/28 07:30:15;;;;;;;11.90;5.17;;;;;;;16.02;92.01;102003.88;5075628;28;20263;-35
2021/08/28 07:32:40;;;;;;;9.68;4.32;;;;;;;16.02;91.92;101999.25;5076471;28;20648;-36
2021/08/28 07:35:07;;;;;;;10.38;4.85;;;;;;;16.05;92.30;102006.94;5074785;28;20025;-36
2021/08/28 07:37:32;;;;;;;8.90;5.43;;;;;;;16.12;92.57;102004.09;5076564;28;20040;-36
2021/08/28 07:39:57;;;;;;;10.00;5.30;;;;;;;16.17;91.60;102005.03;5075828;28;20032;-35
2021/08/28 07:42:22;;;;;;;;;;;;;;;16.28;91.58;102010.69;5076551;28;20028;-35
2021/08/28 07:44:48;;;;;;;10.97;4.97;;;;;;;16.20;92.06;101999.09;5075735;28;19912;-36
2021/08/28 07:47:13;;;;;;;;;;;;;;;16.39;91.46;102013.41;5076988;28;20403;-36
2021/08/28 07:49:39;;;;;;;10.57;4.30;;;;;;;16.27;90.77;102012.59;5076440;28;19927;-36
2021/08/28 07:52:05;;;;;;;;;;;;;;;16.36;90.71;102007.59;5075704;28;20312;-36
2021/08/28 07:54:31;;;;;;;14.55;5.20;;;;;;;16.26;91.25;102002.75;5075484;28;19908;-36
2021/08/28 07:56:56;;;;;;;;;;;;;;;16.43;91.10;102008.28;5076184;28;20029;-36
2021/08/28 07:59:21;;;;;;;9.27;4.88;;;;;;;16.41;90.79;102007.72;5075422;28;19909;-36
2021/08/28 08:01:48;;;;;;;;;;;;;;;16.47;90.14;102006.75;5076185;28;20453;-35
2021/08/28 08:04:13;;;;;;;9.93;5.50;;;;;;;16.44;89.82;102012.66;5075568;28;20252;-35
2021/08/28 08:06:38;;;;;;;8.93;4.32;;;;;;;16.39;89.85;102007.09;5074021;28;20037;-35
2021/08/28 08:09:04;;;;;;;10.23;4.32;;;;;;;16.55;89.84;102014.56;5075905;28;20418;-36
2021/08/28 08:11:29;;;;;;;;;;;;;;;16.64;90.02;102015.84;5075803;28;20029;-36
2021/08/28 08:13:54;;;;;;;8.60;4.50;;;;;;;16.70;88.81;102023.06;5074189;28;19915;-36
2021/08/28 08:16:20;;;;;;;15.57;6.00;;;;;;;16.78;88.38;102013.66;5073465;28;20039;-36
2021/08/28 08:18:45;;;;;;;13.95;5.05;;;;;;;16.87;87.76;102009.47;5075520;28;20286;-36
2021/08/28 08:21:10;;;;;;;;;;;;;;;17.06;88.60;102021.00;5076277;28;20024;-36
2021/08/28 08:23:36;;;;;;;11.90;4.95;;;;;;;17.13;86.93;102016.22;5074965;28;19914;-36
2021/08/28 08:26:01;;;;;;;11.60;4.13;;;;;;;17.08;86.11;102005.22;5074892;28;20052;-36
2021/08/28 08:28:26;;;;;;;8.40;4.47;;;;;;;17.09;85.32;102001.41;5074819;28;20778;-35
2021/08/28 08:30:52;;;;;;;10.35;5.10;;;;;;;17.23;85.51;102019.13;5075065;28;20031;-36
2021/08/28 08:33:17;;;;;;;14.20;4.43;;;;;;;17.25;85.04;102018.88;5074980;28;20313;-36
2021/08/28 08:35:42;;;;;;;;;;;;;;;17.40;86.17;102029.25;5075384;28;20034;-36
2021/08/28 08:38:08;;;;;;;10.05;4.65;;;;;;;17.32;85.15;102007.78;5075077;28;19953;-36
2021/08/28 08:40:33;;;;;;;;;;;;;;;17.56;84.78;102022.94;5074977;28;20021;-36
2021/08/28 08:43:04;;;;;;;14.30;4.93;;;;;;;17.61;82.90;102023.03;5074559;28;19904;-36
2021/08/28 08:45:30;;;;;;;10.30;4.63;;;;;;;17.80;82.75;102020.88;5074803;28;20246;-36
2021/08/28 08:47:56;;;;;;;12.15;4.32;;;;;;;17.93;83.42;102025.19;5074278;28;20047;-36
2021/08/28 08:50:23;;;;;;;8.98;4.30;;;;;;;17.94;81.33;101994.00;5074083;28;20032;-36
2021/08/28 08:52:51;;;;;;;7.13;3.90;;;;;;;17.91;78.40;101989.03;5072872;28;20040;-36
2021/08/28 08:55:17;;;;;;;8.10;4.43;;;;;;;18.32;79.75;102015.06;5074618;28;20374;-36
2021/08/28 08:57:43;;;;;;;;;;;;;;;18.50;80.89;102009.25;5074208;28;20113;-36
2021/08/28 09:00:09;;;;;;;10.90;4.57;;;;;;;18.43;78.34;102013.25;5074114;28;20328;-36
2021/08/28 09:02:36;;;;;;;9.30;4.57;;;;;;;18.24;77.62;102005.34;5073656;28;20029;-36
2021/08/28 09:05:01;;;;;;;11.50;4.10;;;;;;;18.21;78.13;102008.63;5073796;28;20024;-36
2021/08/28 09:07:26;;;;;;;;;;;;;;;18.28;78.76;102011.16;5073779;28;20024;-36
2021/08/28 09:09:51;;;;;;;8.90;4.47;;;;;;;18.04;77.28;102017.94;5074026;28;19912;-36
2021/08/28 09:12:17;;;;;;;;;;;;;;;18.09;78.74;102027.06;5073618;28;20317;-36
2021/08/28 09:14:42;;;;;;;8.80;3.97;;;;;;;17.98;77.67;102014.31;5073770;28;19916;-36
2021/08/28 09:17:15;;;;;;;;;;;;;;;18.22;79.51;102020.41;5073812;28;20031;-36
2021/08/28 09:19:42;;;;;;;7.55;4.22;;;;;;;18.18;77.27;102022.81;5072932;28;20426;-36
2021/08/28 09:22:20;;;;;;;8.82;4.10;;;;;;;18.23;77.37;102022.03;5072986;28;20115;-36
2021/08/28 09:24:47;;;;;;;7.85;4.00;;;;;;;18.27;76.88;102021.28;5073033;28;20021;-36
2021/08/28 09:27:32;;;;;;;7.20;4.15;;;;;;;18.36;76.35;102020.84;5073501;28;20403;-36
2021/08/28 09:29:58;;;;;;;6.57;4.20;;;;;;;18.26;75.51;101997.72;5073978;28;20078;-36
2021/08/28 09:32:23;;;;;;;;;;;;;;;18.52;77.37;102018.03;5073618;28;20095;-36
2021/08/28 09:34:49;;;;;;;6.05;3.95;;;;;;;18.42;75.24;102020.66;5073261;28;19908;-36
2021/08/28 09:37:14;;;;;;;;;;;;;;;18.53;76.63;102027.91;5074234;28;20107;-36
2021/08/28 09:39:44;;;;;;;6.35;3.85;;;;;;;18.63;75.16;102029.94;5073137;28;19908;-36
2021/08/28 09:42:16;;;;;;;8.77;3.92;;;;;;;18.71;74.08;102024.03;5073352;28;20040;-36
2021/08/28 09:44:43;;;;;;;5.60;3.75;;;;;;;18.57;71.15;102021.91;5073492;28;20437;-36
2021/08/28 09:47:10;;;;;;;6.07;4.03;;;;;;;18.71;71.59;102024.03;5073112;28;20162;-36
2021/08/28 09:49:35;;;;;;;6.15;3.67;;;;;;;18.69;71.69;102025.38;5073265;28;20099;-36
2021/08/28 09:52:00;;;;;;;;;;;;;;;18.89;72.78;102028.34;5073679;28;20112;-36
2021/08/28 09:54:26;;;;;;;7.00;4.00;;;;;;;18.80;71.67;102037.28;5073507;28;19981;-36
2021/08/28 09:57:01;;;;;;;;;;;;;;;18.94;71.27;102044.84;5073422;28;20259;-36
2021/08/28 09:59:27;;;;;;;9.30;4.30;;;;;;;18.84;70.17;102030.19;5072906;28;19999;-36
2021/08/28 10:01:52;;;;;;;13.40;4.22;;;;;;;18.85;71.17;102019.00;5073642;28;20027;-36
2021/08/28 10:04:17;;;;;;;;;;;;;;;19.00;70.92;102038.34;5073228;28;20032;-36
2021/08/28 10:06:47;;;;;;;7.03;3.77;;;;;;;18.96;71.10;102034.44;5071758;28;20392;-36
2021/08/28 10:09:14;;;;;;;7.28;4.00;;;;;;;19.04;69.57;102035.91;5073203;28;20279;-36
2021/08/28 10:11:44;;;;;;;8.43;4.18;;;;;;;19.10;69.96;102034.03;5072763;28;20020;-36
2021/08/28 10:14:14;;;;;;;9.48;3.80;;;;;;;19.24;70.51;102036.09;5073079;28;20134;-36
2021/08/28 10:16:39;;;;;;;6.00;4.07;;;;;;;19.36;69.36;102030.44;5088021;28;20036;-36
2021/08/28 10:19:05;;;;;;;;;;;;;;;19.52;70.50;102028.63;5072908;28;20023;-36
2021/08/28 10:21:31;;;;;;;6.70;3.88;;;;;;;19.42;67.95;102023.06;5072849;28;20204;-36
2021/08/28 10:23:57;;;;;;;;;;;;;;;19.59;70.30;102031.19;5072788;28;20017;-36
2021/08/28 10:26:22;;;;;;;9.05;4.55;;;;;;;19.43;69.00;102024.75;5073133;28;19904;-36
2021/08/28 10:28:52;;;;;;;7.13;4.25;;;;;;;19.50;69.01;102028.91;5073388;28;20024;-36
2021/08/28 10:31:18;;;;;;;6.00;3.95;;;;;;;19.69;68.85;102032.09;5072607;28;20040;-36
2021/08/28 10:33:43;;;;;;;;;;;;;;;19.82;68.63;102032.75;5074052;28;20356;-36
2021/08/28 10:36:10;;;;;;;8.40;4.25;;;;;;;19.72;66.62;102023.34;5076041;28;19962;-36
2021/08/28 10:38:41;;;;;;;5.28;3.78;;;;;;;19.62;66.53;102016.94;5075103;28;20395;-36
2021/08/28 10:41:07;;;;;;;9.02;4.32;;;;;;;19.74;66.38;102025.81;5076843;28;20028;-36
2021/08/28 10:43:32;;;;;;;;;;;;;;;19.81;66.47;102029.16;5077188;28;20097;-36
2021/08/28 10:45:58;;;;;;;6.68;3.88;;;;;;;19.76;66.22;102031.88;5076862;28;19911;-36
2021/08/28 10:48:23;;;;;;;;;;;;;;;19.86;66.56;102036.59;5076864;28;20161;-36
2021/08/28 10:50:52;;;;;;;5.55;3.65;;;;;;;19.83;65.63;102018.75;5076500;28;20337;-36
2021/08/28 10:53:18;;;;;;;6.88;4.43;;;;;;;19.91;65.25;102022.91;5076477;28;20063;-35
2021/08/28 10:55:44;;;;;;;;;;;;;;;20.05;66.86;102022.16;5076727;28;20438;-36
2021/08/28 10:58:23;;;;;;;7.85;4.07;;;;;;;20.27;64.79;102010.22;5076344;28;19904;-36
2021/08/28 11:00:54;;;;;;;9.18;4.50;;;;;;;20.40;63.99;102028.97;5076568;28;20024;-36
2021/08/28 11:03:26;;;;;;;7.60;4.55;;;;;;;20.82;65.19;102017.84;5075998;28;20028;-36
2021/08/28 11:06:24;;;;;;;7.55;4.38;;;;;;;20.61;65.61;102016.16;5076522;28;20108;-36
2021/08/28 11:08:51;;;;;;;7.82;4.40;;;;;;;20.15;66.25;102013.16;5013906;28;20045;-36
2021/08/28 11:11:38;;;;;;;7.95;4.40;;;;;;;20.23;66.45;102009.91;5014032;28;20089;-35
2021/08/28 11:14:03;;;;;;;;;;;;;;;20.51;66.12;102027.09;5014776;28;20304;-36
2021/08/28 11:16:40;;;;;;;7.77;4.67;;;;;;;20.66;66.15;102016.16;5014032;28;19911;-36
2021/08/28 11:19:07;;;;;;;7.57;4.30;;;;;;;20.67;64.88;102001.31;5013551;28;20296;-35
2021/08/28 11:21:59;;;;;;;8.15;4.32;;;;;;;20.98;65.42;102026.13;5013715;28;20037;-35
2021/08/28 11:24:26;;;;;;;5.82;3.88;;;;;;;21.12;62.63;102005.22;5012201;28;20034;-36
2021/08/28 11:26:54;;;;;;;7.68;4.00;;;;;;;21.20;63.33;102020.38;5013608;28;20022;-36
2021/08/28 11:29:25;;;;;;;5.68;3.53;;;;;;;21.06;64.15;102017.34;5013423;28;20425;-36